This is the latest recevied weather packets stored in our database for station/object WY7EM. If no packets are shown the sender has not sent any weather packets the latest 10 day(s).
| Time | Temp. | Humidity | Pressure | Rain* | Wind** | Luminosity | Snow |
|---|---|---|---|---|---|---|---|
| 1777518711 | 19.44° C | 19% | 1013.3 hPa | 0 mm | - | 0 W/m² | - |
| 1777518409 | 20° C | 18% | 1013.3 hPa | 0 mm | - | 0 W/m² | - |
| 1777518104 | 20° C | 18% | 1013.2 hPa | 0 mm | - | 0 W/m² | - |
| 1777517800 | 20° C | 18% | 1013.2 hPa | 0 mm | - | 0 W/m² | - |
| 1777517496 | 20° C | 19% | 1013.2 hPa | 0 mm | - | 0 W/m² | - |
| 1777517195 | 20° C | 18% | 1012.9 hPa | 0 mm | - | 0 W/m² | - |
| 1777516893 | 20.56° C | 18% | 1013 hPa | 0 mm | - | 0 W/m² | - |
| 1777516590 | 20° C | 18% | 1012.8 hPa | 0 mm | - | 0 W/m² | - |
| 1777516285 | 20.56° C | 18% | 1012.9 hPa | 0 mm | - | 0 W/m² | - |
| 1777515981 | 20.56° C | 18% | 1012.8 hPa | 0 mm | - | 1 W/m² | - |
| 1777515678 | 20.56° C | 18% | 1012.7 hPa | 0 mm | - | 1 W/m² | - |
| 1777515375 | 20.56° C | 18% | 1012.7 hPa | 0 mm | - | 3 W/m² | - |
| 1777515071 | 21.11° C | 17% | 1012.7 hPa | 0 mm | - | 5 W/m² | - |
| 1777514768 | 21.11° C | 17% | 1012.7 hPa | 0 mm | - | 7 W/m² | - |
| 1777514465 | 21.11° C | 17% | 1012.6 hPa | 0 mm | - | 11 W/m² | - |
| 1777514161 | 21.11° C | 17% | 1012.6 hPa | 0 mm | - | 14 W/m² | - |
| 1777513859 | 21.67° C | 17% | 1012.7 hPa | 0 mm | - | 18 W/m² | - |
| 1777513556 | 22.22° C | 17% | 1012.6 hPa | 0 mm | - | 21 W/m² | - |
| 1777513253 | 22.22° C | 17% | 1012.6 hPa | 0 mm | - | 25 W/m² | - |
| 1777512948 | 22.22° C | 17% | 1012.4 hPa | 0 mm | - | 29 W/m² | - |
| 1777512645 | 22.78° C | 17% | 1012.7 hPa | 0 mm | - | 33 W/m² | - |
| 1777512342 | 22.78° C | 17% | 1012.3 hPa | 0 mm | - | 37 W/m² | - |
| 1777512039 | 23.33° C | 17% | 1012.6 hPa | 0 mm | - | 41 W/m² | - |
| 1777511738 | 23.89° C | 16% | 1012.7 hPa | 0 mm | - | 53 W/m² | - |
| 1777511434 | 23.33° C | 16% | 1012.6 hPa | 0 mm | - | 74 W/m² | - |
* Rain latest hour (hover to see other rain measurements)
** Current wind speed in m/s (hover to see current wind gust speed)